sensor_id;sensor_type;location;lat;lon;timestamp;pressure;altitude;pressure_sealevel;temperature;humidity
54822;BME280;41299;43.546;16.426;2022-08-19T00:00:31;100806.41;;;25.11;63.47
54822;BME280;41299;43.546;16.426;2022-08-19T00:02:57;100797.38;;;25.16;59.11
54822;BME280;41299;43.546;16.426;2022-08-19T00:05:22;100802.59;;;25.17;57.89
54822;BME280;41299;43.546;16.426;2022-08-19T00:07:48;100807.00;;;25.33;52.57
54822;BME280;41299;43.546;16.426;2022-08-19T00:10:15;100807.84;;;25.49;50.58
54822;BME280;41299;43.546;16.426;2022-08-19T00:12:42;100796.94;;;25.56;51.05
54822;BME280;41299;43.546;16.426;2022-08-19T00:15:10;100791.75;;;25.70;49.75
54822;BME280;41299;43.546;16.426;2022-08-19T00:17:40;100787.28;;;25.71;52.77
54822;BME280;41299;43.546;16.426;2022-08-19T00:20:08;100778.34;;;25.73;50.14
54822;BME280;41299;43.546;16.426;2022-08-19T00:22:36;100791.78;;;25.85;48.50
54822;BME280;41299;43.546;16.426;2022-08-19T00:25:02;100790.09;;;25.84;50.33
54822;BME280;41299;43.546;16.426;2022-08-19T00:27:28;100792.63;;;25.85;49.04
54822;BME280;41299;43.546;16.426;2022-08-19T00:29:53;100799.03;;;25.81;50.80
54822;BME280;41299;43.546;16.426;2022-08-19T00:32:19;100792.34;;;25.75;57.77
54822;BME280;41299;43.546;16.426;2022-08-19T00:34:45;100783.06;;;25.68;57.79
54822;BME280;41299;43.546;16.426;2022-08-19T00:37:11;100801.81;;;25.63;62.61
54822;BME280;41299;43.546;16.426;2022-08-19T00:39:36;100796.94;;;25.56;64.64
54822;BME280;41299;43.546;16.426;2022-08-19T00:42:02;100788.41;;;25.50;64.18
54822;BME280;41299;43.546;16.426;2022-08-19T00:44:28;100789.34;;;25.49;63.19
54822;BME280;41299;43.546;16.426;2022-08-19T00:46:57;100785.97;;;25.47;62.68
54822;BME280;41299;43.546;16.426;2022-08-19T00:52:00;100789.63;;;25.45;65.97
54822;BME280;41299;43.546;16.426;2022-08-19T00:54:26;100787.06;;;25.43;60.74
54822;BME280;41299;43.546;16.426;2022-08-19T00:56:52;100785.56;;;25.55;55.15
54822;BME280;41299;43.546;16.426;2022-08-19T00:59:19;100787.06;;;25.59;63.21
54822;BME280;41299;43.546;16.426;2022-08-19T01:01:45;100780.00;;;25.60;58.37
54822;BME280;41299;43.546;16.426;2022-08-19T01:04:12;100788.25;;;25.70;52.99
54822;BME280;41299;43.546;16.426;2022-08-19T01:06:39;100789.78;;;25.74;59.27
54822;BME280;41299;43.546;16.426;2022-08-19T01:09:06;100783.06;;;25.68;60.91
54822;BME280;41299;43.546;16.426;2022-08-19T01:11:35;100781.47;;;25.65;58.84
54822;BME280;41299;43.546;16.426;2022-08-19T01:14:00;100779.72;;;25.64;56.70
54822;BME280;41299;43.546;16.426;2022-08-19T01:16:27;100778.69;;;25.67;56.71
54822;BME280;41299;43.546;16.426;2022-08-19T01:18:54;100770.19;;;25.62;59.13
54822;BME280;41299;43.546;16.426;2022-08-19T01:23:47;100765.03;;;25.60;53.79
54822;BME280;41299;43.546;16.426;2022-08-19T01:26:17;100753.53;;;25.61;58.30
54822;BME280;41299;43.546;16.426;2022-08-19T01:28:44;100737.94;;;25.57;62.23
54822;BME280;41299;43.546;16.426;2022-08-19T01:31:14;100727.47;;;25.55;65.47
54822;BME280;41299;43.546;16.426;2022-08-19T01:33:40;100734.69;;;25.51;67.86
54822;BME280;41299;43.546;16.426;2022-08-19T01:36:09;100730.53;;;25.47;68.71
54822;BME280;41299;43.546;16.426;2022-08-19T01:38:37;100734.19;;;25.45;69.64
54822;BME280;41299;43.546;16.426;2022-08-19T01:41:04;100744.00;;;25.43;70.07
54822;BME280;41299;43.546;16.426;2022-08-19T01:43:29;100757.28;;;25.41;73.59
54822;BME280;41299;43.546;16.426;2022-08-19T01:45:55;100769.59;;;25.40;79.14
54822;BME280;41299;43.546;16.426;2022-08-19T01:48:20;100760.84;;;25.40;82.39
54822;BME280;41299;43.546;16.426;2022-08-19T01:50:46;100767.91;;;25.39;83.13
54822;BME280;41299;43.546;16.426;2022-08-19T01:53:13;100760.75;;;25.42;85.54
54822;BME280;41299;43.546;16.426;2022-08-19T01:55:41;100754.72;;;25.39;86.73
54822;BME280;41299;43.546;16.426;2022-08-19T01:58:13;100747.66;;;25.40;86.07
54822;BME280;41299;43.546;16.426;2022-08-19T02:00:40;100753.69;;;25.42;79.40
54822;BME280;41299;43.546;16.426;2022-08-19T02:03:05;100763.03;;;25.48;72.69
54822;BME280;41299;43.546;16.426;2022-08-19T02:05:32;100769.25;;;25.47;80.87
54822;BME280;41299;43.546;16.426;2022-08-19T02:07:57;100767.75;;;25.43;83.86
54822;BME280;41299;43.546;16.426;2022-08-19T02:10:24;100758.47;;;25.35;86.02
54822;BME280;41299;43.546;16.426;2022-08-19T02:12:49;100767.50;;;25.31;87.99
54822;BME280;41299;43.546;16.426;2022-08-19T02:15:16;100767.81;;;25.25;88.21
54822;BME280;41299;43.546;16.426;2022-08-19T02:17:42;100763.59;;;25.22;89.00
54822;BME280;41299;43.546;16.426;2022-08-19T02:20:08;100761.19;;;25.18;90.13
54822;BME280;41299;43.546;16.426;2022-08-19T02:22:34;100779.84;;;25.15;89.32
54822;BME280;41299;43.546;16.426;2022-08-19T02:25:00;100778.31;;;25.10;82.38
54822;BME280;41299;43.546;16.426;2022-08-19T02:27:26;100788.59;;;25.15;75.07
54822;BME280;41299;43.546;16.426;2022-08-19T02:29:52;100798.94;;;25.20;70.28
54822;BME280;41299;43.546;16.426;2022-08-19T02:32:18;100799.50;;;25.25;66.33
54822;BME280;41299;43.546;16.426;2022-08-19T02:34:45;100809.22;;;25.24;73.22
54822;BME280;41299;43.546;16.426;2022-08-19T02:37:10;100814.41;;;25.26;72.41
54822;BME280;41299;43.546;16.426;2022-08-19T02:39:56;100809.16;;;25.26;76.44
54822;BME280;41299;43.546;16.426;2022-08-19T02:42:22;100811.25;;;25.35;60.67
54822;BME280;41299;43.546;16.426;2022-08-19T02:44:47;100823.00;;;25.46;60.50
54822;BME280;41299;43.546;16.426;2022-08-19T02:47:13;100828.00;;;25.50;61.68
54822;BME280;41299;43.546;16.426;2022-08-19T02:49:40;100832.47;;;25.50;63.92
54822;BME280;41299;43.546;16.426;2022-08-19T02:52:06;100830.66;;;25.50;69.38
54822;BME280;41299;43.546;16.426;2022-08-19T02:54:31;100838.38;;;25.55;63.81
54822;BME280;41299;43.546;16.426;2022-08-19T02:56:56;100832.22;;;25.55;71.20
54822;BME280;41299;43.546;16.426;2022-08-19T02:59:22;100858.63;;;25.55;71.96
54822;BME280;41299;43.546;16.426;2022-08-19T03:01:47;100871.88;;;25.53;68.67
54822;BME280;41299;43.546;16.426;2022-08-19T03:04:14;100889.47;;;25.54;69.11
54822;BME280;41299;43.546;16.426;2022-08-19T03:06:44;100907.03;;;25.55;69.54
54822;BME280;41299;43.546;16.426;2022-08-19T03:09:11;100917.59;;;25.55;68.34
54822;BME280;41299;43.546;16.426;2022-08-19T03:11:37;100902.41;;;25.59;62.98
54822;BME280;41299;43.546;16.426;2022-08-19T03:14:04;100905.66;;;25.64;60.38
54822;BME280;41299;43.546;16.426;2022-08-19T03:16:34;100893.13;;;25.67;60.54
54822;BME280;41299;43.546;16.426;2022-08-19T03:19:01;100884.09;;;25.72;61.08
54822;BME280;41299;43.546;16.426;2022-08-19T03:21:31;100895.41;;;25.74;61.13
54822;BME280;41299;43.546;16.426;2022-08-19T03:23:59;100909.56;;;25.73;64.54
54822;BME280;41299;43.546;16.426;2022-08-19T03:26:25;100936.13;;;25.70;65.82
54822;BME280;41299;43.546;16.426;2022-08-19T03:28:51;100948.50;;;25.69;64.83
54822;BME280;41299;43.546;16.426;2022-08-19T03:31:21;100950.28;;;25.85;59.16
54822;BME280;41299;43.546;16.426;2022-08-19T03:33:49;100957.44;;;26.15;57.29
54822;BME280;41299;43.546;16.426;2022-08-19T03:36:17;100953.16;;;26.28;57.58
54822;BME280;41299;43.546;16.426;2022-08-19T03:38:46;100933.72;;;26.29;58.27
54822;BME280;41299;43.546;16.426;2022-08-19T03:41:16;100921.22;;;26.48;64.32
54822;BME280;41299;43.546;16.426;2022-08-19T03:43:43;100929.91;;;26.50;67.34
54822;BME280;41299;43.546;16.426;2022-08-19T03:46:11;100928.78;;;26.54;66.08
54822;BME280;41299;43.546;16.426;2022-08-19T03:48:38;100921.22;;;26.48;67.58
54822;BME280;41299;43.546;16.426;2022-08-19T03:51:06;100905.34;;;26.48;68.55
54822;BME280;41299;43.546;16.426;2022-08-19T03:53:33;100902.13;;;26.42;72.98
54822;BME280;41299;43.546;16.426;2022-08-19T03:55:59;100886.63;;;26.36;76.67
54822;BME280;41299;43.546;16.426;2022-08-19T03:58:26;100874.72;;;26.29;78.92
54822;BME280;41299;43.546;16.426;2022-08-19T04:00:54;100879.34;;;26.25;81.46
54822;BME280;41299;43.546;16.426;2022-08-19T04:03:20;100875.13;;;26.21;82.95
54822;BME280;41299;43.546;16.426;2022-08-19T04:05:46;100873.69;;;26.15;83.46
54822;BME280;41299;43.546;16.426;2022-08-19T04:08:13;100870.38;;;26.12;79.86
54822;BME280;41299;43.546;16.426;2022-08-19T04:10:41;100868.41;;;26.15;79.22
54822;BME280;41299;43.546;16.426;2022-08-19T04:13:06;100868.59;;;26.12;83.37
54822;BME280;41299;43.546;16.426;2022-08-19T04:15:39;100878.38;;;26.10;86.62
54822;BME280;41299;43.546;16.426;2022-08-19T04:18:07;100884.81;;;26.06;88.90
54822;BME280;41299;43.546;16.426;2022-08-19T04:20:38;100883.28;;;26.02;86.45
54822;BME280;41299;43.546;16.426;2022-08-19T04:23:03;100884.47;;;25.96;90.51
54822;BME280;41299;43.546;16.426;2022-08-19T04:25:35;100898.91;;;25.90;92.82
54822;BME280;41299;43.546;16.426;2022-08-19T04:28:00;100914.06;;;25.87;93.90
54822;BME280;41299;43.546;16.426;2022-08-19T04:30:26;100911.59;;;25.84;97.00
54822;BME280;41299;43.546;16.426;2022-08-19T04:32:51;100900.34;;;25.80;96.68
54822;BME280;41299;43.546;16.426;2022-08-19T04:35:17;100891.91;;;25.89;90.22
54822;BME280;41299;43.546;16.426;2022-08-19T04:37:42;100898.72;;;25.93;87.04
54822;BME280;41299;43.546;16.426;2022-08-19T04:40:08;100899.50;;;25.96;89.84
54822;BME280;41299;43.546;16.426;2022-08-19T04:42:52;100902.72;;;26.01;84.00
54822;BME280;41299;43.546;16.426;2022-08-19T04:45:18;100908.94;;;26.00;89.29
54822;BME280;41299;43.546;16.426;2022-08-19T04:47:44;100911.59;;;26.00;94.92
54822;BME280;41299;43.546;16.426;2022-08-19T04:50:09;100914.47;;;25.95;98.23
54822;BME280;41299;43.546;16.426;2022-08-19T04:52:36;100912.09;;;25.90;100.00
54822;BME280;41299;43.546;16.426;2022-08-19T04:55:02;100915.69;;;25.89;100.00
54822;BME280;41299;43.546;16.426;2022-08-19T04:57:31;100924.44;;;25.90;100.00
54822;BME280;41299;43.546;16.426;2022-08-19T04:59:56;100927.97;;;25.90;100.00
54822;BME280;41299;43.546;16.426;2022-08-19T05:02:22;100930.69;;;25.89;100.00
54822;BME280;41299;43.546;16.426;2022-08-19T05:04:56;100936.22;;;25.84;100.00
54822;BME280;41299;43.546;16.426;2022-08-19T05:07:21;100941.59;;;25.83;100.00
54822;BME280;41299;43.546;16.426;2022-08-19T05:09:46;100939.03;;;25.81;100.00
54822;BME280;41299;43.546;16.426;2022-08-19T05:12:12;100952.34;;;25.79;100.00
54822;BME280;41299;43.546;16.426;2022-08-19T05:14:37;100952.25;;;25.81;100.00
54822;BME280;41299;43.546;16.426;2022-08-19T05:17:03;100963.59;;;25.83;100.00
54822;BME280;41299;43.546;16.426;2022-08-19T05:19:28;100971.53;;;25.83;100.00
54822;BME280;41299;43.546;16.426;2022-08-19T05:22:12;100984.06;;;25.79;100.00
54822;BME280;41299;43.546;16.426;2022-08-19T05:24:56;100993.81;;;25.77;100.00
54822;BME280;41299;43.546;16.426;2022-08-19T05:27:21;100985.22;;;25.74;100.00
54822;BME280;41299;43.546;16.426;2022-08-19T05:29:46;100958.13;;;25.86;100.00
54822;BME280;41299;43.546;16.426;2022-08-19T05:32:12;100933.06;;;25.93;99.85
54822;BME280;41299;43.546;16.426;2022-08-19T05:34:38;100945.19;;;25.82;100.00
54822;BME280;41299;43.546;16.426;2022-08-19T05:37:04;100939.91;;;25.65;100.00
54822;BME280;41299;43.546;16.426;2022-08-19T05:39:32;100895.50;;;25.56;100.00
54822;BME280;41299;43.546;16.426;2022-08-19T05:42:00;100857.59;;;25.57;100.00
54822;BME280;41299;43.546;16.426;2022-08-19T05:44:28;100848.38;;;25.64;100.00
54822;BME280;41299;43.546;16.426;2022-08-19T05:47:02;100859.47;;;25.71;100.00
54822;BME280;41299;43.546;16.426;2022-08-19T05:49:28;100869.59;;;25.79;99.68
54822;BME280;41299;43.546;16.426;2022-08-19T05:51:55;100879.06;;;25.83;100.00
54822;BME280;41299;43.546;16.426;2022-08-19T05:54:21;100890.28;;;25.71;100.00
54822;BME280;41299;43.546;16.426;2022-08-19T05:56:48;100909.84;;;25.50;100.00
54822;BME280;41299;43.546;16.426;2022-08-19T05:59:16;100924.34;;;25.43;100.00
54822;BME280;41299;43.546;16.426;2022-08-19T06:01:44;100936.09;;;25.37;100.00
54822;BME280;41299;43.546;16.426;2022-08-19T06:04:11;100956.28;;;25.38;100.00
54822;BME280;41299;43.546;16.426;2022-08-19T06:06:38;100960.63;;;25.39;100.00
54822;BME280;41299;43.546;16.426;2022-08-19T06:09:05;100971.16;;;25.57;100.00
54822;BME280;41299;43.546;16.426;2022-08-19T06:14:15;100974.25;;;25.82;100.00
54822;BME280;41299;43.546;16.426;2022-08-19T06:16:41;100960.41;;;25.92;100.00
54822;BME280;41299;43.546;16.426;2022-08-19T06:19:12;100936.28;;;25.99;100.00
54822;BME280;41299;43.546;16.426;2022-08-19T06:21:40;100919.97;;;25.92;100.00
54822;BME280;41299;43.546;16.426;2022-08-19T06:24:08;100896.75;;;25.81;100.00
54822;BME280;41299;43.546;16.426;2022-08-19T06:26:36;100882.63;;;25.82;100.00
54822;BME280;41299;43.546;16.426;2022-08-19T06:29:03;100876.06;;;25.89;100.00
54822;BME280;41299;43.546;16.426;2022-08-19T06:31:31;100868.38;;;26.01;100.00
54822;BME280;41299;43.546;16.426;2022-08-19T06:34:00;100864.06;;;26.14;100.00
54822;BME280;41299;43.546;16.426;2022-08-19T06:36:32;100852.53;;;26.31;100.00
54822;BME280;41299;43.546;16.426;2022-08-19T06:39:07;100849.44;;;26.54;100.00
54822;BME280;41299;43.546;16.426;2022-08-19T06:41:43;100837.94;;;26.84;100.00
54822;BME280;41299;43.546;16.426;2022-08-19T06:44:09;100836.88;;;27.16;100.00
54822;BME280;41299;43.546;16.426;2022-08-19T06:46:35;100835.34;;;27.40;100.00
54822;BME280;41299;43.546;16.426;2022-08-19T06:49:01;100819.69;;;27.50;100.00
54822;BME280;41299;43.546;16.426;2022-08-19T06:51:27;100825.63;;;27.54;100.00
54822;BME280;41299;43.546;16.426;2022-08-19T06:53:54;100812.28;;;27.56;100.00
54822;BME280;41299;43.546;16.426;2022-08-19T06:56:30;100834.22;;;27.58;100.00
54822;BME280;41299;43.546;16.426;2022-08-19T06:59:01;100841.44;;;27.56;100.00
54822;BME280;41299;43.546;16.426;2022-08-19T07:01:26;100844.00;;;27.57;100.00
54822;BME280;41299;43.546;16.426;2022-08-19T07:03:52;100859.97;;;27.56;100.00
54822;BME280;41299;43.546;16.426;2022-08-19T07:06:19;100883.72;;;27.57;100.00
54822;BME280;41299;43.546;16.426;2022-08-19T07:08:46;100938.78;;;27.52;100.00
54822;BME280;41299;43.546;16.426;2022-08-19T07:11:14;100997.31;;;27.47;100.00
54822;BME280;41299;43.546;16.426;2022-08-19T07:13:40;101026.75;;;27.43;100.00
54822;BME280;41299;43.546;16.426;2022-08-19T07:16:11;101055.97;;;27.41;100.00
54822;BME280;41299;43.546;16.426;2022-08-19T07:18:37;101100.69;;;27.31;100.00
54822;BME280;41299;43.546;16.426;2022-08-19T07:21:09;101132.47;;;27.31;100.00
54822;BME280;41299;43.546;16.426;2022-08-19T07:23:35;101155.03;;;27.22;100.00
54822;BME280;41299;43.546;16.426;2022-08-19T07:26:30;101156.44;;;27.13;100.00
54822;BME280;41299;43.546;16.426;2022-08-19T07:28:54;101164.91;;;27.04;100.00
54822;BME280;41299;43.546;16.426;2022-08-19T07:31:22;101132.81;;;26.62;100.00
54822;BME280;41299;43.546;16.426;2022-08-19T07:33:50;101082.63;;;25.96;100.00
54822;BME280;41299;43.546;16.426;2022-08-19T07:36:20;101049.63;;;25.37;100.00
54822;BME280;41299;43.546;16.426;2022-08-19T07:38:47;101033.03;;;24.82;100.00
54822;BME280;41299;43.546;16.426;2022-08-19T07:41:16;101047.94;;;24.27;100.00
54822;BME280;41299;43.546;16.426;2022-08-19T07:43:42;101063.28;;;23.98;100.00
54822;BME280;41299;43.546;16.426;2022-08-19T07:46:10;101087.44;;;23.89;100.00
54822;BME280;41299;43.546;16.426;2022-08-19T07:48:37;101088.44;;;23.86;100.00
54822;BME280;41299;43.546;16.426;2022-08-19T07:51:08;101042.84;;;24.03;100.00
54822;BME280;41299;43.546;16.426;2022-08-19T07:53:36;101045.00;;;23.95;100.00
54822;BME280;41299;43.546;16.426;2022-08-19T07:56:03;101085.84;;;23.85;100.00
54822;BME280;41299;43.546;16.426;2022-08-19T07:58:37;101100.28;;;24.16;100.00
54822;BME280;41299;43.546;16.426;2022-08-19T08:01:04;101109.34;;;24.10;100.00
54822;BME280;41299;43.546;16.426;2022-08-19T08:03:30;101107.41;;;24.14;100.00
54822;BME280;41299;43.546;16.426;2022-08-19T08:06:15;101071.22;;;24.17;100.00
54822;BME280;41299;43.546;16.426;2022-08-19T08:09:00;101029.66;;;24.24;100.00
54822;BME280;41299;43.546;16.426;2022-08-19T08:14:21;100979.28;;;24.30;100.00
54822;BME280;41299;43.546;16.426;2022-08-19T08:16:48;100963.84;;;24.23;100.00
54822;BME280;41299;43.546;16.426;2022-08-19T08:19:18;100946.72;;;24.31;100.00
54822;BME280;41299;43.546;16.426;2022-08-19T08:21:44;100952.19;;;24.46;100.00
54822;BME280;41299;43.546;16.426;2022-08-19T08:24:10;100967.00;;;24.84;100.00
54822;BME280;41299;43.546;16.426;2022-08-19T08:26:36;100979.72;;;25.11;100.00
54822;BME280;41299;43.546;16.426;2022-08-19T08:29:02;101009.50;;;25.47;100.00
54822;BME280;41299;43.546;16.426;2022-08-19T08:31:28;101017.72;;;25.92;100.00
54822;BME280;41299;43.546;16.426;2022-08-19T08:33:53;101028.94;;;26.12;100.00
54822;BME280;41299;43.546;16.426;2022-08-19T08:36:20;101045.41;;;26.33;100.00
54822;BME280;41299;43.546;16.426;2022-08-19T08:38:46;101079.53;;;26.54;100.00
54822;BME280;41299;43.546;16.426;2022-08-19T08:43:49;101072.59;;;26.67;100.00
54822;BME280;41299;43.546;16.426;2022-08-19T08:46:44;101073.38;;;26.69;100.00
54822;BME280;41299;43.546;16.426;2022-08-19T08:49:26;101081.38;;;26.68;100.00
54822;BME280;41299;43.546;16.426;2022-08-19T08:52:13;101061.47;;;26.77;100.00
54822;BME280;41299;43.546;16.426;2022-08-19T08:54:43;101047.88;;;26.83;100.00
54822;BME280;41299;43.546;16.426;2022-08-19T08:57:14;101033.72;;;26.84;100.00
54822;BME280;41299;43.546;16.426;2022-08-19T08:59:41;101023.91;;;26.86;100.00
54822;BME280;41299;43.546;16.426;2022-08-19T09:02:08;101029.44;;;26.81;100.00
54822;BME280;41299;43.546;16.426;2022-08-19T09:04:36;101063.19;;;26.78;100.00
54822;BME280;41299;43.546;16.426;2022-08-19T09:10:04;101059.69;;;26.77;100.00
54822;BME280;41299;43.546;16.426;2022-08-19T09:15:32;100949.38;;;26.94;100.00
54822;BME280;41299;43.546;16.426;2022-08-19T09:18:01;100944.75;;;26.97;100.00
54822;BME280;41299;43.546;16.426;2022-08-19T09:20:28;100912.63;;;27.04;100.00
54822;BME280;41299;43.546;16.426;2022-08-19T09:22:53;100847.28;;;27.19;99.79
54822;BME280;41299;43.546;16.426;2022-08-19T09:25:22;100752.25;;;27.29;88.14
54822;BME280;41299;43.546;16.426;2022-08-19T09:27:48;100665.34;;;27.48;69.15
54822;BME280;41299;43.546;16.426;2022-08-19T09:30:23;100700.38;;;27.39;85.42
54822;BME280;41299;43.546;16.426;2022-08-19T09:32:49;100728.97;;;27.34;88.27
54822;BME280;41299;43.546;16.426;2022-08-19T09:35:18;100734.25;;;27.34;87.75
54822;BME280;41299;43.546;16.426;2022-08-19T09:37:43;100719.38;;;27.46;82.71
54822;BME280;41299;43.546;16.426;2022-08-19T09:40:12;100719.09;;;27.76;77.06
54822;BME280;41299;43.546;16.426;2022-08-19T09:42:38;100699.00;;;27.87;77.32
54822;BME280;41299;43.546;16.426;2022-08-19T09:45:04;100702.19;;;28.05;76.33
54822;BME280;41299;43.546;16.426;2022-08-19T09:47:30;100714.16;;;28.11;75.54
54822;BME280;41299;43.546;16.426;2022-08-19T09:49:55;100691.34;;;28.47;70.10
54822;BME280;41299;43.546;16.426;2022-08-19T09:52:21;100734.16;;;28.67;70.77
54822;BME280;41299;43.546;16.426;2022-08-19T09:54:46;100700.78;;;28.89;70.82
54822;BME280;41299;43.546;16.426;2022-08-19T09:57:12;100701.56;;;29.02;67.60
54822;BME280;41299;43.546;16.426;2022-08-19T09:59:38;100771.03;;;28.96;68.74
54822;BME280;41299;43.546;16.426;2022-08-19T10:02:04;100755.00;;;28.97;66.09
54822;BME280;41299;43.546;16.426;2022-08-19T10:04:29;100770.53;;;28.91;65.78
54822;BME280;41299;43.546;16.426;2022-08-19T10:07:14;100767.34;;;28.85;72.59
54822;BME280;41299;43.546;16.426;2022-08-19T10:09:40;100778.88;;;28.47;90.60
54822;BME280;41299;43.546;16.426;2022-08-19T10:12:07;100796.53;;;27.95;99.31
54822;BME280;41299;43.546;16.426;2022-08-19T10:14:33;100787.75;;;27.66;100.00
54822;BME280;41299;43.546;16.426;2022-08-19T10:16:58;100787.63;;;27.13;100.00
54822;BME280;41299;43.546;16.426;2022-08-19T10:19:25;100778.03;;;26.83;100.00
54822;BME280;41299;43.546;16.426;2022-08-19T10:21:53;100774.44;;;26.55;100.00
54822;BME280;41299;43.546;16.426;2022-08-19T10:24:19;100761.63;;;26.63;99.00
54822;BME280;41299;43.546;16.426;2022-08-19T10:26:45;100723.16;;;26.72;100.00
54822;BME280;41299;43.546;16.426;2022-08-19T10:29:13;100724.38;;;26.81;93.58
54822;BME280;41299;43.546;16.426;2022-08-19T10:31:41;100730.59;;;26.94;90.19
54822;BME280;41299;43.546;16.426;2022-08-19T10:34:06;100720.88;;;27.22;90.23
54822;BME280;41299;43.546;16.426;2022-08-19T10:36:34;100721.28;;;27.16;93.04
54822;BME280;41299;43.546;16.426;2022-08-19T10:39:05;100732.09;;;27.26;91.69
54822;BME280;41299;43.546;16.426;2022-08-19T10:41:35;100729.50;;;27.39;91.77
54822;BME280;41299;43.546;16.426;2022-08-19T10:44:04;100748.13;;;27.65;81.15
54822;BME280;41299;43.546;16.426;2022-08-19T10:46:31;100749.63;;;27.69;84.26
54822;BME280;41299;43.546;16.426;2022-08-19T10:48:58;100744.78;;;27.76;83.31
54822;BME280;41299;43.546;16.426;2022-08-19T10:51:24;100742.47;;;27.97;75.71
54822;BME280;41299;43.546;16.426;2022-08-19T10:54:09;100753.91;;;28.11;75.17
54822;BME280;41299;43.546;16.426;2022-08-19T10:56:35;100746.84;;;28.24;69.24
54822;BME280;41299;43.546;16.426;2022-08-19T10:59:28;100760.31;;;28.47;69.18
54822;BME280;41299;43.546;16.426;2022-08-19T11:01:59;100757.94;;;28.55;75.29
54822;BME280;41299;43.546;16.426;2022-08-19T11:04:25;100759.34;;;28.61;75.36
54822;BME280;41299;43.546;16.426;2022-08-19T11:06:50;100764.31;;;28.66;77.97
54822;BME280;41299;43.546;16.426;2022-08-19T11:09:18;100754.66;;;28.65;88.96
54822;BME280;41299;43.546;16.426;2022-08-19T11:11:44;100753.78;;;28.77;90.52
54822;BME280;41299;43.546;16.426;2022-08-19T11:14:12;100753.78;;;28.90;96.26
54822;BME280;41299;43.546;16.426;2022-08-19T11:16:38;100751.47;;;29.10;92.32
54822;BME280;41299;43.546;16.426;2022-08-19T11:19:09;100744.81;;;29.29;94.46
54822;BME280;41299;43.546;16.426;2022-08-19T11:21:37;100728.75;;;29.55;85.51
54822;BME280;41299;43.546;16.426;2022-08-19T11:24:09;100727.84;;;29.78;82.37
54822;BME280;41299;43.546;16.426;2022-08-19T11:26:36;100722.44;;;30.03;79.27
54822;BME280;41299;43.546;16.426;2022-08-19T11:29:04;100722.97;;;30.19;81.24
54822;BME280;41299;43.546;16.426;2022-08-19T11:31:34;100727.81;;;30.26;82.64
54822;BME280;41299;43.546;16.426;2022-08-19T11:34:03;100727.44;;;30.42;85.10
54822;BME280;41299;43.546;16.426;2022-08-19T11:36:30;100735.66;;;30.50;84.72
54822;BME280;41299;43.546;16.426;2022-08-19T11:38:56;100734.78;;;30.61;85.96
54822;BME280;41299;43.546;16.426;2022-08-19T11:41:23;100731.03;;;30.64;80.43
54822;BME280;41299;43.546;16.426;2022-08-19T11:43:50;100727.56;;;30.75;80.49
54822;BME280;41299;43.546;16.426;2022-08-19T11:46:16;100737.22;;;30.87;77.12
54822;BME280;41299;43.546;16.426;2022-08-19T11:48:43;100746.34;;;31.06;81.09
54822;BME280;41299;43.546;16.426;2022-08-19T11:51:13;100748.97;;;31.17;78.29
54822;BME280;41299;43.546;16.426;2022-08-19T11:53:39;100743.84;;;31.25;81.01
54822;BME280;41299;43.546;16.426;2022-08-19T11:56:05;100741.69;;;31.31;78.40
54822;BME280;41299;43.546;16.426;2022-08-19T11:58:32;100746.97;;;31.42;84.24
54822;BME280;41299;43.546;16.426;2022-08-19T12:00:57;100731.25;;;31.39;83.53
54822;BME280;41299;43.546;16.426;2022-08-19T12:03:23;100741.44;;;31.34;77.84
54822;BME280;41299;43.546;16.426;2022-08-19T12:05:50;100729.06;;;31.44;83.53
54822;BME280;41299;43.546;16.426;2022-08-19T12:08:16;100720.59;;;31.39;81.62
54822;BME280;41299;43.546;16.426;2022-08-19T12:10:42;100728.59;;;31.39;75.86
54822;BME280;41299;43.546;16.426;2022-08-19T12:13:12;100739.06;;;31.52;66.00
54822;BME280;41299;43.546;16.426;2022-08-19T12:15:44;100723.25;;;31.60;64.50
54822;BME280;41299;43.546;16.426;2022-08-19T12:18:11;100728.13;;;31.55;75.42
54822;BME280;41299;43.546;16.426;2022-08-19T12:20:40;100727.72;;;31.60;79.21
54822;BME280;41299;43.546;16.426;2022-08-19T12:23:07;100719.94;;;31.68;74.66
54822;BME280;41299;43.546;16.426;2022-08-19T12:25:33;100712.09;;;31.88;69.30
54822;BME280;41299;43.546;16.426;2022-08-19T12:27:59;100714.22;;;31.94;68.50
54822;BME280;41299;43.546;16.426;2022-08-19T12:30:25;100726.31;;;31.98;70.47
54822;BME280;41299;43.546;16.426;2022-08-19T12:32:50;100736.97;;;31.98;63.46
54822;BME280;41299;43.546;16.426;2022-08-19T12:35:17;100745.63;;;31.90;65.79
54822;BME280;41299;43.546;16.426;2022-08-19T12:37:46;100751.31;;;31.97;71.69
54822;BME280;41299;43.546;16.426;2022-08-19T12:40:13;100756.56;;;32.09;72.08
54822;BME280;41299;43.546;16.426;2022-08-19T12:42:39;100763.31;;;32.13;64.42
54822;BME280;41299;43.546;16.426;2022-08-19T12:45:11;100767.19;;;31.99;66.11
54822;BME280;41299;43.546;16.426;2022-08-19T12:47:37;100791.47;;;31.84;64.98
54822;BME280;41299;43.546;16.426;2022-08-19T12:50:03;100796.53;;;31.66;75.52
54822;BME280;41299;43.546;16.426;2022-08-19T12:52:34;100788.13;;;31.49;78.95
54822;BME280;41299;43.546;16.426;2022-08-19T12:55:02;100793.59;;;30.92;100.00
54822;BME280;41299;43.546;16.426;2022-08-19T12:57:28;100795.50;;;30.44;100.00